createdAt,value
2017-09-07T00:02:24.641Z,5.10
2017-09-07T00:04:53.730Z,4.80
2017-09-07T00:07:22.781Z,4.60
2017-09-07T00:09:52.113Z,5.20
2017-09-07T00:12:21.171Z,6.37
2017-09-07T00:15:19.395Z,4.67
2017-09-07T00:17:48.748Z,5.13
2017-09-07T00:20:17.799Z,5.60
2017-09-07T00:22:46.878Z,5.80
2017-09-07T00:25:16.015Z,4.33
2017-09-07T00:27:45.186Z,4.50
2017-09-07T00:30:14.280Z,4.93
2017-09-07T00:32:43.350Z,5.83
2017-09-07T00:35:12.471Z,4.97
2017-09-07T00:37:43.448Z,5.10
2017-09-07T00:40:13.276Z,6.70
2017-09-07T00:42:42.350Z,5.07
2017-09-07T00:45:12.188Z,5.70
2017-09-07T00:47:42.011Z,5.50
2017-09-07T00:50:11.074Z,5.07
2017-09-07T00:52:40.925Z,6.10
2017-09-07T00:55:09.989Z,6.00
2017-09-07T00:57:39.053Z,5.80
2017-09-07T01:00:08.185Z,5.40
2017-09-07T01:02:38.037Z,5.30
2017-09-07T01:05:07.099Z,4.80
2017-09-07T01:07:36.166Z,5.60
2017-09-07T01:10:06.016Z,5.40
2017-09-07T01:12:35.088Z,4.63
2017-09-07T01:15:04.336Z,5.80
2017-09-07T01:17:33.387Z,5.30
2017-09-07T01:20:02.461Z,4.60
2017-09-07T01:22:31.564Z,5.33
2017-09-07T01:25:01.407Z,5.40
2017-09-07T01:27:30.443Z,5.70
2017-09-07T01:29:59.507Z,5.03
2017-09-07T01:32:28.568Z,4.90
2017-09-07T01:34:58.375Z,5.33
2017-09-07T01:37:28.404Z,5.37
2017-09-07T01:39:58.226Z,5.60
2017-09-07T01:42:27.315Z,5.50
2017-09-07T01:44:56.360Z,6.70
2017-09-07T01:47:25.435Z,5.87
2017-09-07T01:49:54.495Z,6.20
2017-09-07T01:52:23.594Z,6.20
2017-09-07T01:54:52.680Z,5.20
2017-09-07T01:57:22.689Z,5.57
2017-09-07T01:59:52.519Z,5.13
2017-09-07T02:02:21.606Z,5.63
2017-09-07T02:04:51.424Z,5.60
2017-09-07T02:07:21.267Z,6.80
2017-09-07T02:09:50.323Z,6.83
2017-09-07T02:12:20.185Z,5.60
2017-09-07T02:14:49.220Z,6.37
2017-09-07T02:17:19.052Z,6.37
2017-09-07T02:19:48.868Z,4.60
2017-09-07T02:22:18.235Z,4.43
2017-09-07T02:24:47.311Z,4.80
2017-09-07T02:27:16.375Z,5.60
2017-09-07T02:29:45.458Z,5.80
2017-09-07T02:32:14.492Z,5.63
2017-09-07T02:34:43.652Z,5.17
2017-09-07T02:37:12.823Z,6.90
2017-09-07T02:39:42.689Z,6.20
2017-09-07T02:42:11.769Z,6.83
2017-09-07T02:44:40.863Z,5.47
2017-09-07T02:47:10.686Z,5.50
2017-09-07T02:49:39.739Z,4.63
2017-09-07T02:52:08.843Z,5.23
2017-09-07T02:54:38.669Z,5.37
2017-09-07T02:57:07.737Z,5.30
2017-09-07T02:59:37.038Z,4.60
2017-09-07T03:02:06.850Z,5.80
2017-09-07T03:04:36.691Z,5.10
2017-09-07T03:07:05.748Z,5.73
2017-09-07T03:09:34.813Z,5.93
2017-09-07T03:12:03.897Z,6.77
2017-09-07T03:14:33.078Z,5.43
2017-09-07T03:17:02.905Z,4.83
2017-09-07T03:19:31.959Z,5.17
2017-09-07T03:22:01.778Z,5.27
2017-09-07T03:24:31.601Z,6.00
2017-09-07T03:27:00.643Z,5.10
2017-09-07T03:29:29.699Z,5.83
2017-09-07T03:31:59.524Z,5.97
2017-09-07T03:34:28.576Z,5.53
2017-09-07T03:36:57.657Z,4.73
2017-09-07T03:39:26.729Z,6.27
2017-09-07T03:41:55.783Z,6.00
2017-09-07T03:44:24.861Z,5.70
2017-09-07T03:46:54.188Z,5.23
2017-09-07T03:49:24.049Z,5.47
2017-09-07T03:51:53.109Z,4.70
2017-09-07T03:54:22.162Z,5.63
2017-09-07T03:56:51.999Z,4.97
2017-09-07T03:59:21.838Z,6.43
2017-09-07T04:01:50.878Z,5.60
2017-09-07T04:04:19.991Z,5.33
2017-09-07T04:06:49.060Z,5.57
2017-09-07T04:09:18.128Z,5.67
2017-09-07T04:11:47.180Z,5.43
2017-09-07T04:14:17.008Z,6.63
2017-09-07T04:16:46.082Z,6.37
2017-09-07T04:19:15.908Z,7.43
2017-09-07T04:21:45.006Z,6.63
2017-09-07T04:24:14.069Z,5.80
2017-09-07T04:26:43.115Z,6.40
2017-09-07T04:29:12.199Z,6.10
2017-09-07T04:31:41.259Z,5.90
2017-09-07T04:34:10.645Z,6.13
2017-09-07T04:36:39.734Z,5.47
2017-09-07T04:39:08.838Z,6.90
2017-09-07T04:41:37.901Z,6.07
2017-09-07T04:44:06.960Z,6.70
2017-09-07T04:46:36.800Z,5.67
2017-09-07T04:49:05.839Z,6.40
2017-09-07T04:51:34.922Z,5.30
2017-09-07T04:54:04.055Z,6.47
2017-09-07T04:56:33.865Z,7.13
2017-09-07T04:59:02.956Z,6.00
2017-09-07T05:01:31.987Z,6.53
2017-09-07T05:04:01.044Z,5.80
2017-09-07T05:06:30.432Z,7.13
2017-09-07T05:08:59.483Z,7.10
2017-09-07T05:11:28.525Z,6.57
2017-09-07T05:13:57.612Z,5.90
2017-09-07T05:16:26.646Z,7.90
2017-09-07T05:18:55.716Z,8.77
2017-09-07T05:21:24.811Z,7.33
2017-09-07T05:23:53.849Z,7.73
2017-09-07T05:26:22.947Z,7.10
2017-09-07T05:28:51.980Z,6.90
2017-09-07T05:31:21.061Z,7.07
2017-09-07T05:33:50.157Z,7.10
2017-09-07T05:36:19.253Z,7.00
2017-09-07T05:38:49.092Z,7.57
2017-09-07T05:41:18.502Z,7.90
2017-09-07T05:43:47.551Z,7.70
2017-09-07T05:46:16.648Z,6.90
2017-09-07T05:48:45.720Z,7.10
2017-09-07T05:51:15.737Z,7.30
2017-09-07T05:53:44.813Z,7.57
2017-09-07T05:56:14.675Z,8.03
2017-09-07T05:58:44.489Z,7.60
2017-09-07T06:01:13.572Z,9.63
2017-09-07T06:03:42.636Z,9.30
2017-09-07T06:06:11.728Z,7.80
2017-09-07T06:08:41.072Z,8.23
2017-09-07T06:11:10.184Z,6.97
2017-09-07T06:13:39.252Z,7.50
2017-09-07T06:16:08.372Z,7.13
2017-09-07T06:18:37.431Z,8.50
2017-09-07T06:21:06.507Z,7.97
2017-09-07T06:23:36.352Z,7.97
2017-09-07T06:26:05.418Z,7.83
2017-09-07T06:28:35.248Z,8.53
2017-09-07T06:31:04.310Z,6.90
2017-09-07T06:33:34.147Z,7.23
2017-09-07T06:36:03.235Z,6.90
2017-09-07T06:38:33.079Z,7.83
2017-09-07T06:41:02.145Z,7.30
2017-09-07T06:43:31.204Z,7.80
2017-09-07T06:46:00.280Z,6.97
2017-09-07T06:48:29.411Z,7.77
2017-09-07T06:50:59.271Z,7.63
2017-09-07T06:53:28.336Z,7.70
2017-09-07T06:55:57.402Z,7.87
2017-09-07T06:58:26.464Z,6.80
2017-09-07T07:00:55.572Z,7.73
2017-09-07T07:03:24.667Z,7.70
2017-09-07T07:05:53.714Z,7.00
2017-09-07T07:08:22.860Z,7.00
2017-09-07T07:10:51.940Z,8.83
2017-09-07T07:13:20.983Z,7.77
2017-09-07T07:15:50.084Z,6.10
2017-09-07T07:18:19.950Z,6.80
2017-09-07T07:20:48.998Z,7.03
2017-09-07T07:23:18.837Z,6.73
2017-09-07T07:25:47.892Z,7.03
2017-09-07T07:28:17.756Z,8.23
2017-09-07T07:30:46.829Z,6.47
2017-09-07T07:33:16.646Z,7.27
2017-09-07T07:35:45.967Z,6.63
2017-09-07T07:38:15.007Z,7.13
2017-09-07T07:40:44.080Z,6.03
2017-09-07T07:43:13.155Z,7.53
2017-09-07T07:45:42.206Z,7.17
2017-09-07T07:48:11.295Z,7.20
2017-09-07T07:50:41.205Z,6.27
2017-09-07T07:53:11.092Z,5.73
2017-09-07T07:55:40.204Z,7.47
2017-09-07T07:58:09.276Z,7.40
2017-09-07T08:00:38.348Z,6.07
2017-09-07T08:03:07.420Z,7.20
2017-09-07T08:05:37.236Z,6.83
2017-09-07T08:08:06.552Z,7.63
2017-09-07T08:10:35.637Z,7.73
2017-09-07T08:13:04.711Z,6.10
2017-09-07T08:15:33.779Z,4.93
2017-09-07T08:18:02.837Z,5.47
2017-09-07T08:20:31.889Z,5.80
2017-09-07T08:23:00.990Z,7.20
2017-09-07T08:25:30.828Z,5.60
2017-09-07T08:27:59.908Z,5.90
2017-09-07T08:30:29.013Z,4.80
2017-09-07T08:32:58.075Z,5.20
2017-09-07T08:35:27.188Z,5.70
2017-09-07T08:37:56.347Z,5.73
2017-09-07T08:40:25.416Z,4.63
2017-09-07T08:42:55.241Z,5.70
2017-09-07T08:45:24.337Z,4.57
2017-09-07T08:47:53.396Z,5.60
2017-09-07T08:50:23.249Z,5.20
2017-09-07T08:52:52.716Z,4.10
2017-09-07T08:55:21.759Z,4.67
2017-09-07T08:57:50.815Z,4.70
2017-09-07T09:00:19.877Z,5.70
2017-09-07T09:02:49.747Z,5.87
2017-09-07T09:05:18.827Z,4.20
2017-09-07T09:07:48.757Z,4.70
2017-09-07T09:10:17.828Z,5.60
2017-09-07T09:12:46.929Z,4.97
2017-09-07T09:15:16.037Z,5.60
2017-09-07T09:17:45.837Z,5.83
2017-09-07T09:20:14.921Z,5.33
2017-09-07T09:22:44.014Z,4.77
2017-09-07T09:25:13.887Z,5.37
2017-09-07T09:27:43.036Z,4.47
2017-09-07T09:30:12.226Z,4.73
2017-09-07T09:32:42.069Z,5.40
2017-09-07T09:35:11.131Z,4.73
2017-09-07T09:37:40.994Z,5.67
2017-09-07T09:40:10.419Z,5.37
2017-09-07T09:42:39.514Z,4.87
2017-09-07T09:45:08.546Z,4.80
2017-09-07T09:47:37.670Z,4.97
2017-09-07T09:50:06.748Z,5.87
2017-09-07T09:52:35.803Z,4.50
2017-09-07T09:55:04.867Z,6.47
2017-09-07T09:57:33.976Z,5.10
2017-09-07T10:00:03.046Z,4.40
2017-09-07T10:02:32.100Z,4.37
2017-09-07T10:05:01.939Z,5.30
2017-09-07T10:07:31.021Z,5.43
2017-09-07T10:10:00.108Z,5.07
2017-09-07T10:12:29.174Z,5.53
2017-09-07T10:14:58.304Z,5.30
2017-09-07T10:17:27.423Z,4.60
2017-09-07T10:19:57.616Z,5.63
2017-09-07T10:22:27.569Z,4.83
2017-09-07T10:24:56.638Z,4.20
2017-09-07T10:27:25.716Z,5.30
2017-09-07T10:29:55.574Z,5.03
2017-09-07T10:32:24.661Z,6.00
2017-09-07T10:34:53.703Z,5.30
2017-09-07T10:37:23.549Z,5.60
2017-09-07T10:39:53.406Z,4.90
2017-09-07T10:42:22.468Z,5.43
2017-09-07T10:44:51.558Z,5.17
2017-09-07T10:47:20.647Z,5.63
2017-09-07T10:49:50.468Z,5.70
2017-09-07T10:52:19.546Z,5.77
2017-09-07T10:54:49.394Z,5.60
2017-09-07T10:57:18.511Z,6.03
2017-09-07T10:59:47.572Z,5.00
2017-09-07T11:02:16.720Z,5.20
2017-09-07T11:04:45.828Z,5.43
2017-09-07T11:07:14.884Z,5.63
2017-09-07T11:09:43.989Z,7.37
2017-09-07T11:12:13.424Z,6.43
2017-09-07T11:14:43.340Z,6.40
2017-09-07T11:17:13.192Z,5.80
2017-09-07T11:19:42.256Z,6.53
2017-09-07T11:22:12.119Z,8.00
2017-09-07T11:24:41.175Z,6.50
2017-09-07T11:27:10.246Z,7.40
2017-09-07T11:29:40.078Z,6.40
2017-09-07T11:32:10.079Z,6.40
2017-09-07T11:34:39.143Z,7.07
2017-09-07T11:37:08.212Z,6.90
2017-09-07T11:39:37.305Z,7.17
2017-09-07T11:42:06.383Z,5.97
2017-09-07T11:44:36.248Z,5.70
2017-09-07T11:47:05.300Z,5.07
2017-09-07T11:49:34.600Z,5.63
2017-09-07T11:52:03.976Z,7.00
2017-09-07T11:54:33.043Z,5.70
2017-09-07T11:57:02.431Z,5.20
2017-09-07T11:59:31.503Z,5.97
2017-09-07T12:02:00.597Z,6.10
2017-09-07T12:04:29.673Z,6.37
2017-09-07T12:06:58.749Z,5.80
2017-09-07T12:09:27.813Z,5.10
2017-09-07T12:11:56.917Z,7.10
2017-09-07T12:14:25.981Z,6.50
2017-09-07T12:16:55.107Z,5.83
2017-09-07T12:19:24.167Z,5.40
2017-09-07T12:21:53.219Z,5.63
2017-09-07T12:24:23.084Z,5.80
2017-09-07T12:26:52.367Z,6.03
2017-09-07T12:29:21.754Z,6.87
2017-09-07T12:31:50.813Z,5.23
2017-09-07T12:34:19.910Z,7.17
2017-09-07T12:36:48.976Z,7.07
2017-09-07T12:39:18.068Z,7.43
2017-09-07T12:41:47.128Z,8.07
2017-09-07T12:44:16.964Z,7.40
2017-09-07T12:46:46.009Z,7.17
2017-09-07T12:49:15.104Z,8.53
2017-09-07T12:51:44.197Z,7.57
2017-09-07T12:54:14.024Z,7.23
2017-09-07T12:56:43.091Z,7.50
2017-09-07T12:59:12.157Z,7.77
2017-09-07T13:01:41.225Z,7.57
2017-09-07T13:04:11.067Z,6.53
2017-09-07T13:06:40.140Z,6.93
2017-09-07T13:09:09.958Z,8.40
2017-09-07T13:11:39.297Z,7.40
2017-09-07T13:14:08.404Z,7.40
2017-09-07T13:16:37.445Z,7.50
2017-09-07T13:19:06.539Z,6.20
2017-09-07T13:21:36.412Z,7.20
2017-09-07T13:24:05.445Z,6.87
2017-09-07T13:26:34.555Z,6.83
2017-09-07T13:29:04.480Z,7.00
2017-09-07T13:31:34.276Z,6.07
2017-09-07T13:34:03.361Z,6.60
2017-09-07T13:36:33.185Z,9.20
2017-09-07T13:39:03.045Z,5.97
2017-09-07T13:41:32.101Z,6.77
2017-09-07T13:44:01.176Z,6.23
2017-09-07T13:46:31.237Z,6.20
2017-09-07T13:49:00.956Z,7.10
2017-09-07T13:51:30.028Z,7.03
2017-09-07T13:53:59.120Z,6.20
2017-09-07T13:56:28.296Z,6.27
2017-09-07T13:58:58.185Z,5.90
2017-09-07T14:01:27.275Z,6.70
2017-09-07T14:03:56.339Z,5.50
2017-09-07T14:06:25.432Z,6.67
2017-09-07T14:08:54.524Z,5.83
2017-09-07T14:11:23.857Z,5.43
2017-09-07T14:13:52.930Z,5.77
2017-09-07T14:16:21.997Z,6.00
2017-09-07T14:18:51.049Z,6.67
2017-09-07T14:21:20.123Z,5.83
2017-09-07T14:23:49.223Z,6.00
2017-09-07T14:26:18.276Z,5.40
2017-09-07T14:28:47.359Z,4.90
2017-09-07T14:31:16.437Z,6.50
2017-09-07T14:33:45.516Z,6.53
2017-09-07T14:36:14.612Z,6.93
2017-09-07T14:38:43.684Z,4.73
2017-09-07T14:41:12.929Z,5.07
2017-09-07T14:43:42.785Z,6.40
2017-09-07T14:46:11.892Z,5.70
2017-09-07T14:48:41.022Z,5.33
2017-09-07T14:51:10.346Z,6.03
2017-09-07T14:53:40.192Z,5.00
2017-09-07T14:56:09.276Z,5.50
2017-09-07T14:58:38.662Z,5.67
2017-09-07T15:01:07.768Z,5.53
2017-09-07T15:03:36.825Z,5.10
2017-09-07T15:06:05.984Z,6.47
2017-09-07T15:08:35.043Z,5.20
2017-09-07T15:11:04.913Z,6.90
2017-09-07T15:13:33.985Z,5.50
2017-09-07T15:16:03.063Z,5.50
2017-09-07T15:18:32.176Z,5.77
2017-09-07T15:21:01.280Z,7.83
2017-09-07T15:23:30.374Z,4.93
2017-09-07T15:25:59.416Z,5.23
2017-09-07T15:28:29.260Z,6.03
2017-09-07T15:30:58.345Z,5.90
2017-09-07T15:33:27.425Z,5.53
2017-09-07T15:35:57.248Z,5.37
2017-09-07T15:38:26.303Z,5.83
2017-09-07T15:40:55.377Z,4.87
2017-09-07T15:43:24.445Z,5.43
2017-09-07T15:45:53.818Z,5.77
2017-09-07T15:48:22.864Z,5.53
2017-09-07T15:50:51.948Z,5.10
2017-09-07T15:53:21.055Z,5.43
2017-09-07T15:55:50.163Z,6.70
2017-09-07T15:58:19.215Z,5.03
2017-09-07T16:00:49.063Z,5.37
2017-09-07T16:03:18.135Z,5.27
2017-09-07T16:05:47.189Z,5.93
2017-09-07T16:08:17.057Z,5.70
2017-09-07T16:10:46.135Z,5.50
2017-09-07T16:13:15.967Z,7.10
2017-09-07T16:15:45.010Z,6.50
2017-09-07T16:18:14.113Z,5.97
2017-09-07T16:20:43.947Z,5.50
2017-09-07T16:23:13.112Z,5.53
2017-09-07T16:25:42.189Z,6.13
2017-09-07T16:28:11.311Z,5.30
2017-09-07T16:30:41.143Z,6.80
2017-09-07T16:33:10.241Z,6.40
2017-09-07T16:35:39.330Z,6.23
2017-09-07T16:38:08.533Z,5.90
2017-09-07T16:40:37.641Z,6.40
2017-09-07T16:43:06.716Z,5.40
2017-09-07T16:45:35.808Z,5.27
2017-09-07T16:48:05.657Z,7.30
2017-09-07T16:50:34.704Z,5.33
2017-09-07T16:53:03.810Z,6.17
2017-09-07T16:55:33.621Z,6.10
2017-09-07T16:58:03.507Z,5.20
2017-09-07T17:00:33.567Z,5.93
2017-09-07T17:03:02.684Z,6.50
2017-09-07T17:05:32.517Z,5.93
2017-09-07T17:08:01.598Z,5.60
2017-09-07T17:10:30.718Z,5.60
2017-09-07T17:13:02.312Z,6.70
2017-09-07T17:15:32.152Z,6.17
2017-09-07T17:18:01.222Z,6.10
2017-09-07T17:20:30.315Z,6.50
2017-09-07T17:23:00.530Z,6.97
2017-09-07T17:25:29.582Z,6.23
2017-09-07T17:27:59.458Z,5.80
2017-09-07T17:30:29.317Z,6.20
2017-09-07T17:32:59.329Z,6.73
2017-09-07T17:35:28.406Z,6.70
2017-09-07T17:37:57.530Z,5.60
2017-09-07T17:40:26.614Z,5.90
2017-09-07T17:42:55.671Z,5.70
2017-09-07T17:45:24.933Z,5.47
2017-09-07T17:47:53.956Z,5.80
2017-09-07T17:50:23.822Z,6.13
2017-09-07T17:52:52.924Z,6.57
2017-09-07T17:55:22.043Z,5.07
2017-09-07T17:57:51.152Z,5.20
2017-09-07T18:00:21.108Z,5.80
2017-09-07T18:02:50.200Z,6.43
2017-09-07T18:05:19.506Z,5.30
2017-09-07T18:07:48.609Z,5.87
2017-09-07T18:10:17.666Z,5.67
2017-09-07T18:12:47.533Z,6.00
2017-09-07T18:15:16.629Z,6.00
2017-09-07T18:17:45.714Z,5.60
2017-09-07T18:20:16.674Z,6.13
2017-09-07T18:22:47.496Z,5.90
2017-09-07T18:25:16.568Z,5.50
2017-09-07T18:27:45.629Z,6.30
2017-09-07T18:30:15.489Z,7.00
2017-09-07T18:32:44.558Z,6.00
2017-09-07T18:35:14.023Z,6.10
2017-09-07T18:37:47.087Z,5.80
2017-09-07T18:40:16.160Z,5.97
2017-09-07T18:42:45.235Z,6.00
2017-09-07T18:45:14.313Z,6.00
2017-09-07T18:47:44.264Z,6.20
2017-09-07T18:50:13.614Z,7.07
2017-09-07T18:52:43.024Z,5.47
2017-09-07T18:55:12.153Z,6.77
2017-09-07T18:57:41.281Z,6.80
2017-09-07T19:00:10.541Z,6.83
2017-09-07T19:02:39.583Z,5.30
2017-09-07T19:05:08.947Z,6.57
2017-09-07T19:07:38.059Z,6.77
2017-09-07T19:10:07.130Z,6.57
2017-09-07T19:12:36.216Z,6.43
2017-09-07T19:15:06.089Z,6.23
2017-09-07T19:17:35.178Z,7.10
2017-09-07T19:20:04.307Z,6.10
2017-09-07T19:22:33.394Z,7.23
2017-09-07T19:25:02.473Z,5.70
2017-09-07T19:27:31.550Z,6.80
2017-09-07T19:30:00.622Z,6.10
2017-09-07T19:32:29.767Z,6.30
2017-09-07T19:34:59.589Z,6.00
2017-09-07T19:37:28.679Z,6.57
2017-09-07T19:39:57.769Z,6.30
2017-09-07T19:42:26.849Z,6.40
2017-09-07T19:44:56.163Z,6.80
2017-09-07T19:47:25.242Z,6.50
2017-09-07T19:49:54.328Z,6.10
2017-09-07T19:52:23.393Z,6.13
2017-09-07T19:54:52.476Z,6.80
2017-09-07T19:57:21.546Z,6.47
2017-09-07T19:59:50.631Z,6.23
2017-09-07T20:02:19.701Z,6.83
2017-09-07T20:04:49.069Z,5.97
2017-09-07T20:07:18.124Z,6.43
2017-09-07T20:09:47.241Z,7.20
2017-09-07T20:12:16.272Z,7.07
2017-09-07T20:14:45.324Z,7.30
2017-09-07T20:17:15.176Z,7.10
2017-09-07T20:19:44.289Z,7.47
2017-09-07T20:22:13.438Z,6.43
2017-09-07T20:24:42.504Z,6.87
2017-09-07T20:27:11.611Z,7.00
2017-09-07T20:29:41.527Z,6.23
2017-09-07T20:32:10.606Z,7.13
2017-09-07T20:34:39.698Z,7.80
2017-09-07T20:37:08.849Z,5.63
2017-09-07T20:39:37.932Z,7.03
2017-09-07T20:42:06.998Z,7.67
2017-09-07T20:44:36.841Z,8.03
2017-09-07T20:47:06.664Z,7.57
2017-09-07T20:49:35.785Z,8.77
2017-09-07T20:52:04.874Z,8.20
2017-09-07T20:54:33.974Z,6.77
2017-09-07T20:57:03.051Z,6.97
2017-09-07T20:59:32.870Z,8.13
2017-09-07T21:02:01.921Z,6.43
2017-09-07T21:04:31.776Z,7.23
2017-09-07T21:07:00.857Z,7.87
2017-09-07T21:09:30.675Z,7.67
2017-09-07T21:11:59.788Z,7.00
2017-09-07T21:14:28.911Z,6.67
2017-09-07T21:16:58.204Z,6.33
2017-09-07T21:19:27.280Z,6.20
2017-09-07T21:21:56.559Z,6.37
2017-09-07T21:24:26.416Z,7.40
2017-09-07T21:26:55.478Z,6.70
2017-09-07T21:29:25.333Z,7.60
2017-09-07T21:31:54.434Z,6.43
2017-09-07T21:34:23.478Z,5.33
2017-09-07T21:36:52.544Z,6.63
2017-09-07T21:39:21.648Z,6.33
2017-09-07T21:41:50.711Z,6.73
2017-09-07T21:44:19.784Z,6.43
2017-09-07T21:46:48.856Z,6.87
2017-09-07T21:49:17.918Z,6.40
2017-09-07T21:51:46.972Z,7.07
2017-09-07T21:54:16.049Z,5.90
2017-09-07T21:56:45.141Z,6.93
2017-09-07T21:59:14.935Z,6.53
2017-09-07T22:01:44.777Z,6.97
2017-09-07T22:04:13.862Z,7.93
2017-09-07T22:06:43.027Z,6.13
2017-09-07T22:09:12.100Z,6.57
2017-09-07T22:11:41.165Z,6.00
2017-09-07T22:14:10.325Z,6.87
2017-09-07T22:16:39.355Z,5.63
2017-09-07T22:19:08.610Z,6.70
2017-09-07T22:21:38.855Z,6.87
2017-09-07T22:24:08.689Z,6.40
2017-09-07T22:26:37.765Z,6.43
2017-09-07T22:29:07.576Z,7.00
2017-09-07T22:31:36.659Z,5.33
2017-09-07T22:34:06.512Z,6.30
2017-09-07T22:36:35.573Z,6.17
2017-09-07T22:39:05.409Z,5.87
2017-09-07T22:41:35.454Z,6.50
2017-09-07T22:44:04.577Z,6.87
2017-09-07T22:46:33.616Z,6.50
2017-09-07T22:49:02.721Z,6.17
2017-09-07T22:51:31.767Z,6.03
2017-09-07T22:54:00.836Z,6.50
2017-09-07T22:56:29.896Z,5.33
2017-09-07T22:58:58.960Z,6.73
2017-09-07T23:01:28.016Z,4.80
2017-09-07T23:03:57.113Z,5.10
2017-09-07T23:06:26.152Z,6.43
2017-09-07T23:08:55.983Z,5.70
2017-09-07T23:11:25.049Z,6.63
2017-09-07T23:13:54.144Z,5.53
2017-09-07T23:16:23.215Z,5.80
2017-09-07T23:18:52.260Z,5.40
2017-09-07T23:21:21.398Z,4.97
2017-09-07T23:23:50.469Z,5.30
2017-09-07T23:26:19.517Z,6.63
2017-09-07T23:28:48.609Z,5.77
2017-09-07T23:31:17.675Z,6.00
2017-09-07T23:33:46.732Z,6.60
2017-09-07T23:36:15.848Z,5.80
2017-09-07T23:38:44.924Z,6.60
2017-09-07T23:41:14.183Z,6.70
2017-09-07T23:43:43.290Z,5.43
2017-09-07T23:46:12.380Z,6.80
2017-09-07T23:48:41.480Z,6.50
2017-09-07T23:51:10.546Z,6.73
2017-09-07T23:53:39.617Z,7.20
2017-09-07T23:56:08.775Z,5.83
2017-09-07T23:58:37.846Z,6.50
